sensor_id;sensor_type;location;lat;lon;timestamp;P1;durP1;ratioP1;P2;durP2;ratioP2
52948;SDS011;38812;50.942;3.644;2023-05-10T00:01:54;16.27;;;11.50;;
52948;SDS011;38812;50.942;3.644;2023-05-10T00:04:20;20.50;;;11.18;;
52948;SDS011;38812;50.942;3.644;2023-05-10T00:06:45;16.92;;;11.57;;
52948;SDS011;38812;50.942;3.644;2023-05-10T00:09:11;21.05;;;10.98;;
52948;SDS011;38812;50.942;3.644;2023-05-10T00:11:36;19.67;;;10.93;;
52948;SDS011;38812;50.942;3.644;2023-05-10T00:14:01;18.23;;;10.88;;
52948;SDS011;38812;50.942;3.644;2023-05-10T00:16:27;20.92;;;11.23;;
52948;SDS011;38812;50.942;3.644;2023-05-10T00:18:52;18.75;;;11.63;;
52948;SDS011;38812;50.942;3.644;2023-05-10T00:21:18;21.20;;;11.05;;
52948;SDS011;38812;50.942;3.644;2023-05-10T00:23:43;21.98;;;11.27;;
52948;SDS011;38812;50.942;3.644;2023-05-10T00:26:08;18.73;;;11.55;;
52948;SDS011;38812;50.942;3.644;2023-05-10T00:28:34;23.50;;;12.38;;
52948;SDS011;38812;50.942;3.644;2023-05-10T00:30:59;23.58;;;11.75;;
52948;SDS011;38812;50.942;3.644;2023-05-10T00:33:24;20.35;;;12.05;;
52948;SDS011;38812;50.942;3.644;2023-05-10T00:35:50;20.30;;;11.40;;
52948;SDS011;38812;50.942;3.644;2023-05-10T00:38:15;20.58;;;11.85;;
52948;SDS011;38812;50.942;3.644;2023-05-10T00:40:41;23.83;;;13.63;;
52948;SDS011;38812;50.942;3.644;2023-05-10T00:43:06;19.85;;;11.32;;
52948;SDS011;38812;50.942;3.644;2023-05-10T00:45:32;21.17;;;10.95;;
52948;SDS011;38812;50.942;3.644;2023-05-10T00:48:03;21.65;;;12.50;;
52948;SDS011;38812;50.942;3.644;2023-05-10T00:50:30;20.00;;;12.32;;
52948;SDS011;38812;50.942;3.644;2023-05-10T00:52:56;27.83;;;14.27;;
52948;SDS011;38812;50.942;3.644;2023-05-10T00:55:22;26.85;;;14.02;;
52948;SDS011;38812;50.942;3.644;2023-05-10T00:57:48;21.95;;;13.40;;
52948;SDS011;38812;50.942;3.644;2023-05-10T01:00:14;26.15;;;15.32;;
52948;SDS011;38812;50.942;3.644;2023-05-10T01:02:43;28.50;;;14.23;;
52948;SDS011;38812;50.942;3.644;2023-05-10T01:05:09;27.58;;;15.05;;
52948;SDS011;38812;50.942;3.644;2023-05-10T01:07:35;28.83;;;13.95;;
52948;SDS011;38812;50.942;3.644;2023-05-10T01:10:00;25.85;;;14.07;;
52948;SDS011;38812;50.942;3.644;2023-05-10T01:12:26;26.95;;;16.73;;
52948;SDS011;38812;50.942;3.644;2023-05-10T01:14:51;30.80;;;15.98;;
52948;SDS011;38812;50.942;3.644;2023-05-10T01:17:17;26.00;;;15.75;;
52948;SDS011;38812;50.942;3.644;2023-05-10T01:19:43;30.50;;;15.73;;
52948;SDS011;38812;50.942;3.644;2023-05-10T01:33:50;27.77;;;15.95;;
52948;SDS011;38812;50.942;3.644;2023-05-10T01:36:31;30.67;;;16.48;;
52948;SDS011;38812;50.942;3.644;2023-05-10T01:42:01;30.15;;;16.35;;
52948;SDS011;38812;50.942;3.644;2023-05-10T01:47:12;27.13;;;14.93;;
52948;SDS011;38812;50.942;3.644;2023-05-10T01:49:45;29.45;;;16.25;;
52948;SDS011;38812;50.942;3.644;2023-05-10T01:52:15;31.77;;;15.93;;
52948;SDS011;38812;50.942;3.644;2023-05-10T01:54:53;28.95;;;15.55;;
52948;SDS011;38812;50.942;3.644;2023-05-10T01:57:21;28.50;;;15.75;;
52948;SDS011;38812;50.942;3.644;2023-05-10T01:59:51;30.75;;;16.27;;
52948;SDS011;38812;50.942;3.644;2023-05-10T02:02:18;25.67;;;16.15;;
52948;SDS011;38812;50.942;3.644;2023-05-10T02:04:46;26.75;;;14.98;;
52948;SDS011;38812;50.942;3.644;2023-05-10T02:07:14;30.15;;;14.68;;
52948;SDS011;38812;50.942;3.644;2023-05-10T02:09:41;26.02;;;14.32;;
52948;SDS011;38812;50.942;3.644;2023-05-10T02:12:12;25.67;;;14.87;;
52948;SDS011;38812;50.942;3.644;2023-05-10T02:14:39;24.25;;;13.60;;
52948;SDS011;38812;50.942;3.644;2023-05-10T02:17:07;29.10;;;15.40;;
52948;SDS011;38812;50.942;3.644;2023-05-10T02:19:35;26.35;;;14.50;;
52948;SDS011;38812;50.942;3.644;2023-05-10T02:22:03;26.23;;;14.75;;
52948;SDS011;38812;50.942;3.644;2023-05-10T02:24:30;21.52;;;14.18;;
52948;SDS011;38812;50.942;3.644;2023-05-10T02:26:58;25.02;;;15.05;;
52948;SDS011;38812;50.942;3.644;2023-05-10T02:29:27;28.63;;;14.80;;
52948;SDS011;38812;50.942;3.644;2023-05-10T02:31:54;27.13;;;14.63;;
52948;SDS011;38812;50.942;3.644;2023-05-10T02:34:23;24.80;;;15.23;;
52948;SDS011;38812;50.942;3.644;2023-05-10T02:36:51;26.08;;;15.52;;
52948;SDS011;38812;50.942;3.644;2023-05-10T02:39:18;30.65;;;17.02;;
52948;SDS011;38812;50.942;3.644;2023-05-10T02:41:44;33.45;;;16.63;;
52948;SDS011;38812;50.942;3.644;2023-05-10T02:44:12;31.35;;;17.15;;
52948;SDS011;38812;50.942;3.644;2023-05-10T02:46:42;29.17;;;16.10;;
52948;SDS011;38812;50.942;3.644;2023-05-10T02:49:08;30.30;;;17.98;;
52948;SDS011;38812;50.942;3.644;2023-05-10T02:51:34;29.52;;;16.42;;
52948;SDS011;38812;50.942;3.644;2023-05-10T02:54:12;27.90;;;17.10;;
52948;SDS011;38812;50.942;3.644;2023-05-10T02:56:47;34.00;;;17.10;;
52948;SDS011;38812;50.942;3.644;2023-05-10T02:59:16;29.90;;;18.40;;
52948;SDS011;38812;50.942;3.644;2023-05-10T03:01:41;29.38;;;17.60;;
52948;SDS011;38812;50.942;3.644;2023-05-10T03:04:07;35.10;;;20.75;;
52948;SDS011;38812;50.942;3.644;2023-05-10T03:06:32;37.10;;;22.58;;
52948;SDS011;38812;50.942;3.644;2023-05-10T03:08:58;37.15;;;21.60;;
52948;SDS011;38812;50.942;3.644;2023-05-10T03:11:28;38.97;;;23.27;;
52948;SDS011;38812;50.942;3.644;2023-05-10T03:17:11;39.65;;;20.98;;
52948;SDS011;38812;50.942;3.644;2023-05-10T03:19:56;36.70;;;22.42;;
52948;SDS011;38812;50.942;3.644;2023-05-10T03:22:25;38.35;;;23.65;;
52948;SDS011;38812;50.942;3.644;2023-05-10T03:24:55;34.10;;;22.73;;
52948;SDS011;38812;50.942;3.644;2023-05-10T03:27:25;37.63;;;22.05;;
52948;SDS011;38812;50.942;3.644;2023-05-10T03:29:52;32.53;;;21.95;;
52948;SDS011;38812;50.942;3.644;2023-05-10T03:32:19;32.38;;;22.23;;
52948;SDS011;38812;50.942;3.644;2023-05-10T03:34:45;33.15;;;20.98;;
52948;SDS011;38812;50.942;3.644;2023-05-10T03:37:10;32.42;;;21.23;;
52948;SDS011;38812;50.942;3.644;2023-05-10T03:39:36;36.13;;;22.23;;
52948;SDS011;38812;50.942;3.644;2023-05-10T03:42:01;32.95;;;19.25;;
52948;SDS011;38812;50.942;3.644;2023-05-10T03:44:27;39.80;;;19.75;;
52948;SDS011;38812;50.942;3.644;2023-05-10T03:46:52;32.03;;;19.27;;
52948;SDS011;38812;50.942;3.644;2023-05-10T03:49:17;34.05;;;18.00;;
52948;SDS011;38812;50.942;3.644;2023-05-10T03:51:43;32.33;;;18.48;;
52948;SDS011;38812;50.942;3.644;2023-05-10T03:54:08;40.35;;;19.58;;
52948;SDS011;38812;50.942;3.644;2023-05-10T03:56:34;45.53;;;20.02;;
52948;SDS011;38812;50.942;3.644;2023-05-10T03:58:59;38.15;;;18.88;;
52948;SDS011;38812;50.942;3.644;2023-05-10T04:01:24;48.47;;;22.80;;
52948;SDS011;38812;50.942;3.644;2023-05-10T04:03:50;39.72;;;22.17;;
52948;SDS011;38812;50.942;3.644;2023-05-10T04:06:15;53.83;;;24.92;;
52948;SDS011;38812;50.942;3.644;2023-05-10T04:08:41;52.78;;;24.52;;
52948;SDS011;38812;50.942;3.644;2023-05-10T04:11:07;47.05;;;24.38;;
52948;SDS011;38812;50.942;3.644;2023-05-10T04:13:33;44.22;;;24.48;;
52948;SDS011;38812;50.942;3.644;2023-05-10T04:15:58;47.63;;;22.98;;
52948;SDS011;38812;50.942;3.644;2023-05-10T04:18:24;45.65;;;24.98;;
52948;SDS011;38812;50.942;3.644;2023-05-10T04:20:49;52.70;;;23.73;;
52948;SDS011;38812;50.942;3.644;2023-05-10T04:23:15;52.17;;;24.23;;
52948;SDS011;38812;50.942;3.644;2023-05-10T04:25:41;53.58;;;23.88;;
52948;SDS011;38812;50.942;3.644;2023-05-10T04:28:07;53.55;;;26.77;;
52948;SDS011;38812;50.942;3.644;2023-05-10T04:30:33;53.33;;;27.52;;
52948;SDS011;38812;50.942;3.644;2023-05-10T04:32:58;47.88;;;25.70;;
52948;SDS011;38812;50.942;3.644;2023-05-10T04:35:23;53.30;;;25.58;;
52948;SDS011;38812;50.942;3.644;2023-05-10T04:37:49;49.35;;;26.25;;
52948;SDS011;38812;50.942;3.644;2023-05-10T04:40:14;60.35;;;27.75;;
52948;SDS011;38812;50.942;3.644;2023-05-10T04:42:40;54.45;;;25.95;;
52948;SDS011;38812;50.942;3.644;2023-05-10T04:45:06;56.15;;;26.10;;
52948;SDS011;38812;50.942;3.644;2023-05-10T04:47:32;48.95;;;25.92;;
52948;SDS011;38812;50.942;3.644;2023-05-10T04:49:57;47.50;;;26.42;;
52948;SDS011;38812;50.942;3.644;2023-05-10T04:52:23;51.97;;;26.15;;
52948;SDS011;38812;50.942;3.644;2023-05-10T04:54:49;54.00;;;26.10;;
52948;SDS011;38812;50.942;3.644;2023-05-10T04:57:14;54.05;;;27.38;;
52948;SDS011;38812;50.942;3.644;2023-05-10T04:59:40;50.90;;;26.65;;
52948;SDS011;38812;50.942;3.644;2023-05-10T05:02:05;45.03;;;26.73;;
52948;SDS011;38812;50.942;3.644;2023-05-10T05:04:30;53.55;;;25.85;;
52948;SDS011;38812;50.942;3.644;2023-05-10T05:06:56;45.28;;;25.58;;
52948;SDS011;38812;50.942;3.644;2023-05-10T05:09:22;46.33;;;25.90;;
52948;SDS011;38812;50.942;3.644;2023-05-10T05:11:47;52.92;;;27.60;;
52948;SDS011;38812;50.942;3.644;2023-05-10T05:14:13;57.05;;;26.30;;
52948;SDS011;38812;50.942;3.644;2023-05-10T05:16:38;60.33;;;27.77;;
52948;SDS011;38812;50.942;3.644;2023-05-10T05:19:04;54.22;;;27.45;;
52948;SDS011;38812;50.942;3.644;2023-05-10T05:21:30;55.00;;;26.10;;
52948;SDS011;38812;50.942;3.644;2023-05-10T05:23:57;48.55;;;25.60;;
52948;SDS011;38812;50.942;3.644;2023-05-10T05:26:22;51.00;;;25.58;;
52948;SDS011;38812;50.942;3.644;2023-05-10T05:28:47;46.25;;;26.15;;
52948;SDS011;38812;50.942;3.644;2023-05-10T05:31:14;49.20;;;26.80;;
52948;SDS011;38812;50.942;3.644;2023-05-10T05:33:40;58.35;;;27.92;;
52948;SDS011;38812;50.942;3.644;2023-05-10T05:36:05;50.30;;;24.67;;
52948;SDS011;38812;50.942;3.644;2023-05-10T05:38:31;48.35;;;25.90;;
52948;SDS011;38812;50.942;3.644;2023-05-10T05:40:57;51.25;;;26.42;;
52948;SDS011;38812;50.942;3.644;2023-05-10T05:43:22;41.13;;;23.10;;
52948;SDS011;38812;50.942;3.644;2023-05-10T05:45:48;58.72;;;26.33;;
52948;SDS011;38812;50.942;3.644;2023-05-10T05:48:13;50.90;;;25.55;;
52948;SDS011;38812;50.942;3.644;2023-05-10T05:50:38;52.42;;;24.35;;
52948;SDS011;38812;50.942;3.644;2023-05-10T05:53:04;57.83;;;27.02;;
52948;SDS011;38812;50.942;3.644;2023-05-10T05:55:29;55.35;;;25.13;;
52948;SDS011;38812;50.942;3.644;2023-05-10T05:57:56;59.08;;;24.65;;
52948;SDS011;38812;50.942;3.644;2023-05-10T06:00:22;50.30;;;23.33;;
52948;SDS011;38812;50.942;3.644;2023-05-10T06:02:47;47.65;;;24.17;;
52948;SDS011;38812;50.942;3.644;2023-05-10T06:05:13;51.35;;;25.27;;
52948;SDS011;38812;50.942;3.644;2023-05-10T06:07:39;50.60;;;24.65;;
52948;SDS011;38812;50.942;3.644;2023-05-10T06:10:07;56.22;;;26.58;;
52948;SDS011;38812;50.942;3.644;2023-05-10T06:12:33;58.55;;;25.77;;
52948;SDS011;38812;50.942;3.644;2023-05-10T06:14:58;55.42;;;26.58;;
52948;SDS011;38812;50.942;3.644;2023-05-10T06:17:23;60.97;;;25.08;;
52948;SDS011;38812;50.942;3.644;2023-05-10T06:19:49;48.78;;;24.80;;
52948;SDS011;38812;50.942;3.644;2023-05-10T06:22:14;48.92;;;25.50;;
52948;SDS011;38812;50.942;3.644;2023-05-10T06:24:40;57.95;;;25.38;;
52948;SDS011;38812;50.942;3.644;2023-05-10T06:27:05;59.33;;;26.20;;
52948;SDS011;38812;50.942;3.644;2023-05-10T06:29:31;57.65;;;24.23;;
52948;SDS011;38812;50.942;3.644;2023-05-10T06:31:56;49.85;;;24.98;;
52948;SDS011;38812;50.942;3.644;2023-05-10T06:34:21;50.80;;;24.45;;
52948;SDS011;38812;50.942;3.644;2023-05-10T06:36:47;47.75;;;24.50;;
52948;SDS011;38812;50.942;3.644;2023-05-10T06:39:12;58.00;;;24.10;;
52948;SDS011;38812;50.942;3.644;2023-05-10T06:41:37;43.55;;;23.85;;
52948;SDS011;38812;50.942;3.644;2023-05-10T06:44:03;48.10;;;23.58;;
52948;SDS011;38812;50.942;3.644;2023-05-10T06:46:29;41.85;;;23.25;;
52948;SDS011;38812;50.942;3.644;2023-05-10T06:48:54;37.72;;;21.52;;
52948;SDS011;38812;50.942;3.644;2023-05-10T06:51:19;46.83;;;23.20;;
52948;SDS011;38812;50.942;3.644;2023-05-10T06:53:46;40.35;;;23.80;;
52948;SDS011;38812;50.942;3.644;2023-05-10T06:56:12;48.90;;;22.77;;
52948;SDS011;38812;50.942;3.644;2023-05-10T06:58:37;45.35;;;20.90;;
52948;SDS011;38812;50.942;3.644;2023-05-10T07:01:03;46.83;;;22.25;;
52948;SDS011;38812;50.942;3.644;2023-05-10T07:03:30;39.10;;;21.83;;
52948;SDS011;38812;50.942;3.644;2023-05-10T07:05:59;51.88;;;20.80;;
52948;SDS011;38812;50.942;3.644;2023-05-10T07:08:31;36.13;;;20.02;;
52948;SDS011;38812;50.942;3.644;2023-05-10T07:11:01;42.55;;;21.35;;
52948;SDS011;38812;50.942;3.644;2023-05-10T07:13:32;45.85;;;20.50;;
52948;SDS011;38812;50.942;3.644;2023-05-10T07:15:58;41.53;;;19.90;;
52948;SDS011;38812;50.942;3.644;2023-05-10T07:18:24;41.20;;;19.38;;
52948;SDS011;38812;50.942;3.644;2023-05-10T07:20:50;40.38;;;19.83;;
52948;SDS011;38812;50.942;3.644;2023-05-10T07:23:16;55.58;;;20.73;;
52948;SDS011;38812;50.942;3.644;2023-05-10T07:25:44;41.75;;;20.73;;
52948;SDS011;38812;50.942;3.644;2023-05-10T07:28:14;50.03;;;19.70;;
52948;SDS011;38812;50.942;3.644;2023-05-10T07:30:41;36.45;;;18.23;;
52948;SDS011;38812;50.942;3.644;2023-05-10T07:33:07;34.30;;;18.13;;
52948;SDS011;38812;50.942;3.644;2023-05-10T07:35:34;40.35;;;20.33;;
52948;SDS011;38812;50.942;3.644;2023-05-10T07:38:00;31.98;;;17.35;;
52948;SDS011;38812;50.942;3.644;2023-05-10T07:40:25;36.05;;;17.65;;
52948;SDS011;38812;50.942;3.644;2023-05-10T07:42:51;38.92;;;17.73;;
52948;SDS011;38812;50.942;3.644;2023-05-10T07:45:17;32.58;;;18.10;;
52948;SDS011;38812;50.942;3.644;2023-05-10T07:47:43;29.88;;;16.27;;
52948;SDS011;38812;50.942;3.644;2023-05-10T07:50:08;32.72;;;16.63;;
52948;SDS011;38812;50.942;3.644;2023-05-10T07:52:34;35.15;;;16.38;;
52948;SDS011;38812;50.942;3.644;2023-05-10T07:54:59;32.30;;;15.70;;
52948;SDS011;38812;50.942;3.644;2023-05-10T07:57:24;31.73;;;15.25;;
52948;SDS011;38812;50.942;3.644;2023-05-10T07:59:50;27.60;;;15.40;;
52948;SDS011;38812;50.942;3.644;2023-05-10T08:02:15;32.67;;;15.30;;
52948;SDS011;38812;50.942;3.644;2023-05-10T08:04:40;36.30;;;14.88;;
52948;SDS011;38812;50.942;3.644;2023-05-10T08:07:06;28.90;;;15.02;;
52948;SDS011;38812;50.942;3.644;2023-05-10T08:09:32;31.40;;;15.35;;
52948;SDS011;38812;50.942;3.644;2023-05-10T08:11:57;28.58;;;14.13;;
52948;SDS011;38812;50.942;3.644;2023-05-10T08:14:24;29.45;;;14.57;;
52948;SDS011;38812;50.942;3.644;2023-05-10T08:16:49;26.88;;;15.32;;
52948;SDS011;38812;50.942;3.644;2023-05-10T08:19:15;23.92;;;14.38;;
52948;SDS011;38812;50.942;3.644;2023-05-10T08:21:43;34.13;;;15.40;;
52948;SDS011;38812;50.942;3.644;2023-05-10T08:24:09;25.73;;;14.23;;
52948;SDS011;38812;50.942;3.644;2023-05-10T08:26:35;26.90;;;14.68;;
52948;SDS011;38812;50.942;3.644;2023-05-10T08:29:00;31.23;;;14.77;;
52948;SDS011;38812;50.942;3.644;2023-05-10T08:31:25;24.58;;;13.63;;
52948;SDS011;38812;50.942;3.644;2023-05-10T08:33:51;25.05;;;14.02;;
52948;SDS011;38812;50.942;3.644;2023-05-10T08:36:17;26.13;;;15.43;;
52948;SDS011;38812;50.942;3.644;2023-05-10T08:38:46;28.20;;;15.05;;
52948;SDS011;38812;50.942;3.644;2023-05-10T08:41:15;28.33;;;13.70;;
52948;SDS011;38812;50.942;3.644;2023-05-10T08:43:41;29.10;;;14.73;;
52948;SDS011;38812;50.942;3.644;2023-05-10T08:46:11;24.00;;;12.38;;
52948;SDS011;38812;50.942;3.644;2023-05-10T08:48:42;22.33;;;14.02;;
52948;SDS011;38812;50.942;3.644;2023-05-10T08:51:09;28.38;;;13.23;;
52948;SDS011;38812;50.942;3.644;2023-05-10T08:53:37;28.92;;;12.63;;
52948;SDS011;38812;50.942;3.644;2023-05-10T08:56:03;21.77;;;11.43;;
52948;SDS011;38812;50.942;3.644;2023-05-10T08:58:29;18.98;;;12.32;;
52948;SDS011;38812;50.942;3.644;2023-05-10T09:00:55;23.20;;;12.18;;
52948;SDS011;38812;50.942;3.644;2023-05-10T09:03:22;21.38;;;11.02;;
52948;SDS011;38812;50.942;3.644;2023-05-10T09:05:50;20.05;;;11.38;;
52948;SDS011;38812;50.942;3.644;2023-05-10T09:08:15;22.02;;;11.75;;
52948;SDS011;38812;50.942;3.644;2023-05-10T09:10:43;26.85;;;12.48;;
52948;SDS011;38812;50.942;3.644;2023-05-10T09:13:12;22.00;;;12.52;;
52948;SDS011;38812;50.942;3.644;2023-05-10T09:15:39;26.63;;;13.40;;
52948;SDS011;38812;50.942;3.644;2023-05-10T09:18:04;31.88;;;12.50;;
52948;SDS011;38812;50.942;3.644;2023-05-10T09:20:29;22.92;;;12.07;;
52948;SDS011;38812;50.942;3.644;2023-05-10T09:22:56;24.40;;;12.18;;
52948;SDS011;38812;50.942;3.644;2023-05-10T09:25:21;21.70;;;11.95;;
52948;SDS011;38812;50.942;3.644;2023-05-10T09:27:47;23.15;;;11.43;;
52948;SDS011;38812;50.942;3.644;2023-05-10T09:30:17;20.35;;;10.88;;
52948;SDS011;38812;50.942;3.644;2023-05-10T09:32:43;22.92;;;11.48;;
52948;SDS011;38812;50.942;3.644;2023-05-10T09:35:10;20.98;;;11.10;;
52948;SDS011;38812;50.942;3.644;2023-05-10T09:37:40;24.02;;;12.00;;
52948;SDS011;38812;50.942;3.644;2023-05-10T09:40:08;25.10;;;11.80;;
52948;SDS011;38812;50.942;3.644;2023-05-10T09:42:42;23.67;;;12.95;;
52948;SDS011;38812;50.942;3.644;2023-05-10T09:45:15;27.95;;;11.27;;
52948;SDS011;38812;50.942;3.644;2023-05-10T09:47:40;24.05;;;11.38;;
52948;SDS011;38812;50.942;3.644;2023-05-10T09:50:06;24.92;;;12.40;;
52948;SDS011;38812;50.942;3.644;2023-05-10T09:52:45;20.80;;;11.05;;
52948;SDS011;38812;50.942;3.644;2023-05-10T09:55:18;23.45;;;10.30;;
52948;SDS011;38812;50.942;3.644;2023-05-10T09:57:45;18.10;;;9.95;;
52948;SDS011;38812;50.942;3.644;2023-05-10T10:00:18;15.60;;;10.95;;
52948;SDS011;38812;50.942;3.644;2023-05-10T10:02:48;19.75;;;10.40;;
52948;SDS011;38812;50.942;3.644;2023-05-10T10:05:19;20.02;;;10.50;;
52948;SDS011;38812;50.942;3.644;2023-05-10T10:07:45;17.35;;;10.73;;
52948;SDS011;38812;50.942;3.644;2023-05-10T10:10:10;20.40;;;10.57;;
52948;SDS011;38812;50.942;3.644;2023-05-10T10:12:38;20.13;;;12.05;;
52948;SDS011;38812;50.942;3.644;2023-05-10T10:15:04;22.65;;;11.57;;
52948;SDS011;38812;50.942;3.644;2023-05-10T10:17:31;17.80;;;11.05;;
52948;SDS011;38812;50.942;3.644;2023-05-10T10:19:58;17.60;;;11.38;;
52948;SDS011;38812;50.942;3.644;2023-05-10T10:22:24;19.13;;;9.43;;
52948;SDS011;38812;50.942;3.644;2023-05-10T10:24:50;17.60;;;11.15;;
52948;SDS011;38812;50.942;3.644;2023-05-10T10:35:25;17.50;;;10.45;;
52948;SDS011;38812;50.942;3.644;2023-05-10T10:37:50;20.63;;;12.63;;
52948;SDS011;38812;50.942;3.644;2023-05-10T10:40:22;20.02;;;12.05;;
52948;SDS011;38812;50.942;3.644;2023-05-10T10:42:49;20.55;;;11.80;;
52948;SDS011;38812;50.942;3.644;2023-05-10T10:45:15;17.92;;;11.02;;
52948;SDS011;38812;50.942;3.644;2023-05-10T10:47:41;15.57;;;10.95;;
52948;SDS011;38812;50.942;3.644;2023-05-10T10:50:08;14.23;;;10.20;;
52948;SDS011;38812;50.942;3.644;2023-05-10T10:52:38;22.38;;;12.40;;
52948;SDS011;38812;50.942;3.644;2023-05-10T11:02:49;18.73;;;10.68;;
52948;SDS011;38812;50.942;3.644;2023-05-10T11:08:06;22.02;;;14.82;;
52948;SDS011;38812;50.942;3.644;2023-05-10T11:13:31;22.27;;;14.55;;
52948;SDS011;38812;50.942;3.644;2023-05-10T11:16:16;25.95;;;15.10;;
52948;SDS011;38812;50.942;3.644;2023-05-10T11:19:04;22.35;;;15.05;;
52948;SDS011;38812;50.942;3.644;2023-05-10T11:21:32;18.98;;;13.57;;
52948;SDS011;38812;50.942;3.644;2023-05-10T11:24:12;19.60;;;13.60;;
52948;SDS011;38812;50.942;3.644;2023-05-10T11:26:39;20.50;;;12.18;;
52948;SDS011;38812;50.942;3.644;2023-05-10T11:29:05;16.65;;;12.63;;
52948;SDS011;38812;50.942;3.644;2023-05-10T11:31:31;19.73;;;11.85;;
52948;SDS011;38812;50.942;3.644;2023-05-10T11:33:59;21.15;;;12.07;;
52948;SDS011;38812;50.942;3.644;2023-05-10T11:36:37;20.83;;;13.63;;
52948;SDS011;38812;50.942;3.644;2023-05-10T11:39:03;21.60;;;12.00;;
52948;SDS011;38812;50.942;3.644;2023-05-10T11:41:30;16.63;;;12.27;;
52948;SDS011;38812;50.942;3.644;2023-05-10T11:43:56;16.83;;;11.75;;
52948;SDS011;38812;50.942;3.644;2023-05-10T11:46:25;19.63;;;13.98;;
52948;SDS011;38812;50.942;3.644;2023-05-10T11:48:53;17.23;;;11.52;;
52948;SDS011;38812;50.942;3.644;2023-05-10T11:51:23;16.45;;;11.68;;
52948;SDS011;38812;50.942;3.644;2023-05-10T11:53:50;21.02;;;12.38;;
52948;SDS011;38812;50.942;3.644;2023-05-10T11:56:18;17.15;;;11.10;;
52948;SDS011;38812;50.942;3.644;2023-05-10T11:58:43;19.90;;;11.25;;
52948;SDS011;38812;50.942;3.644;2023-05-10T12:01:08;16.40;;;10.80;;
52948;SDS011;38812;50.942;3.644;2023-05-10T12:03:35;23.60;;;12.10;;
52948;SDS011;38812;50.942;3.644;2023-05-10T12:06:02;17.00;;;11.43;;
52948;SDS011;38812;50.942;3.644;2023-05-10T12:08:28;18.50;;;11.45;;
52948;SDS011;38812;50.942;3.644;2023-05-10T12:11:08;23.55;;;12.48;;
52948;SDS011;38812;50.942;3.644;2023-05-10T12:13:40;17.27;;;11.88;;
52948;SDS011;38812;50.942;3.644;2023-05-10T12:16:17;21.70;;;11.43;;
52948;SDS011;38812;50.942;3.644;2023-05-10T12:18:55;17.10;;;11.13;;
52948;SDS011;38812;50.942;3.644;2023-05-10T12:21:22;19.25;;;10.13;;
52948;SDS011;38812;50.942;3.644;2023-05-10T12:23:54;17.13;;;10.90;;
52948;SDS011;38812;50.942;3.644;2023-05-10T12:26:25;18.75;;;12.40;;
52948;SDS011;38812;50.942;3.644;2023-05-10T12:28:53;17.65;;;10.98;;
52948;SDS011;38812;50.942;3.644;2023-05-10T12:31:19;13.55;;;9.70;;
52948;SDS011;38812;50.942;3.644;2023-05-10T12:33:45;15.68;;;9.45;;
52948;SDS011;38812;50.942;3.644;2023-05-10T12:36:12;16.92;;;10.05;;
52948;SDS011;38812;50.942;3.644;2023-05-10T12:38:39;18.73;;;10.75;;
52948;SDS011;38812;50.942;3.644;2023-05-10T12:41:08;22.92;;;10.15;;
52948;SDS011;38812;50.942;3.644;2023-05-10T12:43:36;17.77;;;9.85;;
52948;SDS011;38812;50.942;3.644;2023-05-10T12:46:09;15.93;;;10.27;;
52948;SDS011;38812;50.942;3.644;2023-05-10T12:48:36;21.23;;;9.98;;
52948;SDS011;38812;50.942;3.644;2023-05-10T12:51:03;15.80;;;10.63;;
52948;SDS011;38812;50.942;3.644;2023-05-10T12:53:29;16.38;;;10.85;;
52948;SDS011;38812;50.942;3.644;2023-05-10T12:55:55;19.98;;;11.52;;
52948;SDS011;38812;50.942;3.644;2023-05-10T12:58:21;18.55;;;10.85;;
52948;SDS011;38812;50.942;3.644;2023-05-10T13:00:46;21.48;;;13.18;;
52948;SDS011;38812;50.942;3.644;2023-05-10T13:03:12;17.90;;;12.48;;
52948;SDS011;38812;50.942;3.644;2023-05-10T13:05:37;28.73;;;14.27;;
52948;SDS011;38812;50.942;3.644;2023-05-10T13:08:03;24.80;;;12.77;;
52948;SDS011;38812;50.942;3.644;2023-05-10T13:10:29;18.85;;;14.57;;
52948;SDS011;38812;50.942;3.644;2023-05-10T13:12:55;21.83;;;13.57;;
52948;SDS011;38812;50.942;3.644;2023-05-10T13:15:21;19.98;;;12.27;;
52948;SDS011;38812;50.942;3.644;2023-05-10T13:17:47;19.15;;;12.43;;
52948;SDS011;38812;50.942;3.644;2023-05-10T13:20:12;24.60;;;13.63;;
52948;SDS011;38812;50.942;3.644;2023-05-10T13:22:37;23.40;;;13.32;;
52948;SDS011;38812;50.942;3.644;2023-05-10T13:25:03;19.38;;;13.88;;
52948;SDS011;38812;50.942;3.644;2023-05-10T13:27:28;29.52;;;12.55;;
52948;SDS011;38812;50.942;3.644;2023-05-10T13:29:54;17.77;;;12.75;;
52948;SDS011;38812;50.942;3.644;2023-05-10T13:32:20;20.27;;;12.77;;
52948;SDS011;38812;50.942;3.644;2023-05-10T13:34:45;19.83;;;12.68;;
52948;SDS011;38812;50.942;3.644;2023-05-10T13:37:11;16.70;;;12.35;;
52948;SDS011;38812;50.942;3.644;2023-05-10T13:39:36;19.42;;;12.27;;
52948;SDS011;38812;50.942;3.644;2023-05-10T13:42:02;32.30;;;15.68;;
52948;SDS011;38812;50.942;3.644;2023-05-10T13:44:28;22.88;;;12.95;;
52948;SDS011;38812;50.942;3.644;2023-05-10T13:46:53;29.48;;;12.32;;
52948;SDS011;38812;50.942;3.644;2023-05-10T13:49:19;18.20;;;10.75;;
52948;SDS011;38812;50.942;3.644;2023-05-10T13:51:44;22.40;;;11.57;;
52948;SDS011;38812;50.942;3.644;2023-05-10T13:54:10;16.95;;;11.45;;
52948;SDS011;38812;50.942;3.644;2023-05-10T13:56:35;19.77;;;11.38;;
52948;SDS011;38812;50.942;3.644;2023-05-10T13:59:00;13.70;;;7.40;;
52948;SDS011;38812;50.942;3.644;2023-05-10T14:01:26;11.48;;;4.72;;
52948;SDS011;38812;50.942;3.644;2023-05-10T14:03:52;11.50;;;4.78;;
52948;SDS011;38812;50.942;3.644;2023-05-10T14:06:17;15.52;;;3.90;;
52948;SDS011;38812;50.942;3.644;2023-05-10T14:08:42;9.32;;;3.75;;
52948;SDS011;38812;50.942;3.644;2023-05-10T14:11:08;12.85;;;4.22;;
52948;SDS011;38812;50.942;3.644;2023-05-10T14:13:33;6.90;;;2.85;;
52948;SDS011;38812;50.942;3.644;2023-05-10T14:15:59;6.13;;;2.22;;
52948;SDS011;38812;50.942;3.644;2023-05-10T14:18:27;13.13;;;2.55;;
52948;SDS011;38812;50.942;3.644;2023-05-10T14:20:53;14.48;;;3.05;;
52948;SDS011;38812;50.942;3.644;2023-05-10T14:23:18;8.77;;;2.63;;
52948;SDS011;38812;50.942;3.644;2023-05-10T14:25:49;11.50;;;3.70;;
52948;SDS011;38812;50.942;3.644;2023-05-10T14:28:15;10.02;;;4.20;;
52948;SDS011;38812;50.942;3.644;2023-05-10T14:30:42;11.55;;;3.13;;
52948;SDS011;38812;50.942;3.644;2023-05-10T14:33:07;10.60;;;2.65;;
52948;SDS011;38812;50.942;3.644;2023-05-10T14:35:32;7.70;;;2.63;;
52948;SDS011;38812;50.942;3.644;2023-05-10T14:37:58;9.13;;;2.30;;
52948;SDS011;38812;50.942;3.644;2023-05-10T14:40:23;12.63;;;2.95;;
52948;SDS011;38812;50.942;3.644;2023-05-10T14:42:49;9.60;;;2.30;;
52948;SDS011;38812;50.942;3.644;2023-05-10T14:45:15;8.93;;;2.55;;
52948;SDS011;38812;50.942;3.644;2023-05-10T14:47:40;10.35;;;2.90;;
52948;SDS011;38812;50.942;3.644;2023-05-10T14:50:06;12.52;;;3.17;;
52948;SDS011;38812;50.942;3.644;2023-05-10T14:52:32;10.18;;;2.20;;
52948;SDS011;38812;50.942;3.644;2023-05-10T14:54:57;7.50;;;2.08;;
52948;SDS011;38812;50.942;3.644;2023-05-10T14:57:24;12.95;;;3.00;;
52948;SDS011;38812;50.942;3.644;2023-05-10T14:59:49;14.20;;;3.00;;
52948;SDS011;38812;50.942;3.644;2023-05-10T15:02:14;8.02;;;2.85;;
52948;SDS011;38812;50.942;3.644;2023-05-10T15:04:40;9.57;;;2.75;;